Greater Kankakee Airport
KIKK : now visible

Airfield :











YOU CAN JOIN US ON...

 
LOGIN :

Register | Disclaimer

   EN    FR    IT 

 









Legend :    VFR   Marginal VFR   IFR   Intensive IFR   Very Intensive IFR
Visi :
Ceiling :
>= 8 km
>= 3000ft
5 to 8 km
1000 to 3000 ft
1500m to 5 km
500 to 1000 ft
800 to 1500m
200 to 500 ft
< 800m
< 200 ft
Symbols :   Thunderstorms  Fog  Heavy snow  Heavy precipitations  Wind > 20 kt







- Airport Elevation : 630 ft


KIKK - Greater Kankakee

CURRENT METAR :
  • 191355Z AUTO 23010G17KT 10SM CLR 28/24 A2987 RMK AO2 T02800244

EXPIRED METARs :
  • 191335Z AUTO 23012KT 10SM SCT060 28/25 A2989 RMK AO2 T02780245
  • 191315Z AUTO 23008KT 10SM BKN060 BKN070 28/25 A2989 RMK AO2 T02750247
  • 191255Z AUTO 23007KT 10SM BKN060 BKN070 27/25 A2990 RMK AO2 T02700247
  • 191235Z AUTO 22008KT 10SM CLR 27/25 A2990 RMK AO2 T02670250
  • 191215Z AUTO 23006KT 10SM CLR 27/25 A2989 RMK AO2 T02650251
  • 191155Z AUTO 23007KT 10SM CLR 26/25 A2988 RMK AO2 70059 T02630250 10275 20260
  • 191135Z AUTO 23006KT 10SM CLR 26/25 A2988 RMK AO2 T02630250
  • 191115Z AUTO 23008KT 10SM CLR 26/25 A2988 RMK AO2 T02630250
  • 191055Z AUTO 22008KT 10SM CLR 26/25 A2987 RMK AO2 T02600252

TAF N/A
KZAU FIR / North America



MET'MAP, your aeronautical weather chart ! - Copyright ORBIFLY December 2007 - Disclaimer

ORBIFLY MET'MAP TEAM :

Programming & Development : Alexandra Zaïnal
Concept & Development : Baudouin d'Aumeries
Co-Development & Prog : Marc-Olivier Méhu
Technical & hardware support : Manuel Goepfert

Contact : metmap@orbifly.com




SOURCES & CREDITS :

   NOAA       Earth
Advisory